sensor_id;sensor_type;location;lat;lon;timestamp;P1;durP1;ratioP1;P2;durP2;ratioP2
72895;SDS011;61036;53.224;6.554;2022-08-16T00:00:18;20.63;;;18.50;;
72895;SDS011;61036;53.224;6.554;2022-08-16T00:02:46;21.93;;;19.77;;
72895;SDS011;61036;53.224;6.554;2022-08-16T00:05:13;23.03;;;20.17;;
72895;SDS011;61036;53.224;6.554;2022-08-16T00:07:40;21.63;;;19.23;;
72895;SDS011;61036;53.224;6.554;2022-08-16T00:10:06;22.23;;;19.83;;
72895;SDS011;61036;53.224;6.554;2022-08-16T00:12:34;20.93;;;18.73;;
72895;SDS011;61036;53.224;6.554;2022-08-16T00:15:00;21.77;;;19.53;;
72895;SDS011;61036;53.224;6.554;2022-08-16T00:17:29;22.60;;;19.90;;
72895;SDS011;61036;53.224;6.554;2022-08-16T00:19:55;19.33;;;17.43;;
72895;SDS011;61036;53.224;6.554;2022-08-16T00:22:21;21.53;;;19.07;;
72895;SDS011;61036;53.224;6.554;2022-08-16T00:24:47;20.47;;;18.37;;
72895;SDS011;61036;53.224;6.554;2022-08-16T00:27:13;22.50;;;20.20;;
72895;SDS011;61036;53.224;6.554;2022-08-16T00:29:39;23.33;;;19.83;;
72895;SDS011;61036;53.224;6.554;2022-08-16T00:32:05;22.23;;;20.03;;
72895;SDS011;61036;53.224;6.554;2022-08-16T00:34:32;22.70;;;20.30;;
72895;SDS011;61036;53.224;6.554;2022-08-16T00:36:58;22.33;;;20.13;;
72895;SDS011;61036;53.224;6.554;2022-08-16T00:39:24;22.73;;;20.43;;
72895;SDS011;61036;53.224;6.554;2022-08-16T00:41:51;21.43;;;19.23;;
72895;SDS011;61036;53.224;6.554;2022-08-16T00:44:18;21.00;;;18.93;;
72895;SDS011;61036;53.224;6.554;2022-08-16T00:46:48;21.70;;;19.50;;
72895;SDS011;61036;53.224;6.554;2022-08-16T00:49:18;20.67;;;18.57;;
72895;SDS011;61036;53.224;6.554;2022-08-16T00:51:48;21.23;;;19.10;;
72895;SDS011;61036;53.224;6.554;2022-08-16T00:54:16;23.00;;;20.50;;
72895;SDS011;61036;53.224;6.554;2022-08-16T00:56:43;23.47;;;20.97;;
72895;SDS011;61036;53.224;6.554;2022-08-16T00:59:12;21.43;;;19.43;;
72895;SDS011;61036;53.224;6.554;2022-08-16T01:01:38;23.30;;;20.47;;
72895;SDS011;61036;53.224;6.554;2022-08-16T01:04:05;20.47;;;18.47;;
72895;SDS011;61036;53.224;6.554;2022-08-16T01:06:32;23.60;;;21.30;;
72895;SDS011;61036;53.224;6.554;2022-08-16T01:08:59;22.93;;;20.63;;
72895;SDS011;61036;53.224;6.554;2022-08-16T01:11:27;22.67;;;20.33;;
72895;SDS011;61036;53.224;6.554;2022-08-16T01:14:04;21.50;;;19.20;;
72895;SDS011;61036;53.224;6.554;2022-08-16T01:16:35;20.70;;;18.70;;
72895;SDS011;61036;53.224;6.554;2022-08-16T01:19:04;23.07;;;20.77;;
72895;SDS011;61036;53.224;6.554;2022-08-16T01:21:43;22.27;;;20.03;;
72895;SDS011;61036;53.224;6.554;2022-08-16T01:24:38;21.50;;;19.37;;
72895;SDS011;61036;53.224;6.554;2022-08-16T01:27:09;21.63;;;19.33;;
72895;SDS011;61036;53.224;6.554;2022-08-16T01:29:41;20.13;;;18.13;;
72895;SDS011;61036;53.224;6.554;2022-08-16T01:32:15;20.17;;;18.17;;
72895;SDS011;61036;53.224;6.554;2022-08-16T01:34:41;22.73;;;20.47;;
72895;SDS011;61036;53.224;6.554;2022-08-16T01:37:08;19.43;;;17.53;;
72895;SDS011;61036;53.224;6.554;2022-08-16T01:39:36;22.70;;;20.40;;
72895;SDS011;61036;53.224;6.554;2022-08-16T01:42:03;21.57;;;19.43;;
72895;SDS011;61036;53.224;6.554;2022-08-16T01:44:31;21.80;;;19.47;;
72895;SDS011;61036;53.224;6.554;2022-08-16T01:46:58;20.87;;;18.73;;
72895;SDS011;61036;53.224;6.554;2022-08-16T01:49:30;22.93;;;20.60;;
72895;SDS011;61036;53.224;6.554;2022-08-16T01:51:59;22.87;;;20.47;;
72895;SDS011;61036;53.224;6.554;2022-08-16T01:54:49;21.57;;;19.30;;
72895;SDS011;61036;53.224;6.554;2022-08-16T01:57:16;21.20;;;19.17;;
72895;SDS011;61036;53.224;6.554;2022-08-16T01:59:42;20.13;;;18.13;;
72895;SDS011;61036;53.224;6.554;2022-08-16T02:02:11;20.40;;;18.13;;
72895;SDS011;61036;53.224;6.554;2022-08-16T02:04:38;20.20;;;18.27;;
72895;SDS011;61036;53.224;6.554;2022-08-16T02:07:03;19.60;;;17.73;;
72895;SDS011;61036;53.224;6.554;2022-08-16T02:09:35;19.80;;;17.10;;
72895;SDS011;61036;53.224;6.554;2022-08-16T02:12:04;20.00;;;17.97;;
72895;SDS011;61036;53.224;6.554;2022-08-16T02:14:33;19.57;;;17.53;;
72895;SDS011;61036;53.224;6.554;2022-08-16T02:16:59;19.30;;;17.40;;
72895;SDS011;61036;53.224;6.554;2022-08-16T02:19:27;20.80;;;18.33;;
72895;SDS011;61036;53.224;6.554;2022-08-16T02:21:54;19.67;;;17.70;;
72895;SDS011;61036;53.224;6.554;2022-08-16T02:24:22;19.20;;;17.30;;
72895;SDS011;61036;53.224;6.554;2022-08-16T02:26:49;22.47;;;20.20;;
72895;SDS011;61036;53.224;6.554;2022-08-16T02:29:15;21.50;;;19.30;;
72895;SDS011;61036;53.224;6.554;2022-08-16T02:31:44;21.33;;;19.23;;
72895;SDS011;61036;53.224;6.554;2022-08-16T02:34:11;21.33;;;19.13;;
72895;SDS011;61036;53.224;6.554;2022-08-16T02:36:39;21.50;;;19.20;;
72895;SDS011;61036;53.224;6.554;2022-08-16T02:39:07;22.87;;;20.50;;
72895;SDS011;61036;53.224;6.554;2022-08-16T02:41:35;22.87;;;20.40;;
72895;SDS011;61036;53.224;6.554;2022-08-16T02:44:02;22.70;;;20.40;;
72895;SDS011;61036;53.224;6.554;2022-08-16T02:46:30;23.20;;;20.77;;
72895;SDS011;61036;53.224;6.554;2022-08-16T02:48:57;24.03;;;21.63;;
72895;SDS011;61036;53.224;6.554;2022-08-16T02:51:23;22.53;;;20.33;;
72895;SDS011;61036;53.224;6.554;2022-08-16T02:53:52;21.07;;;19.07;;
72895;SDS011;61036;53.224;6.554;2022-08-16T02:56:20;23.00;;;19.47;;
72895;SDS011;61036;53.224;6.554;2022-08-16T02:58:55;21.30;;;19.20;;
72895;SDS011;61036;53.224;6.554;2022-08-16T03:01:25;22.57;;;20.33;;
72895;SDS011;61036;53.224;6.554;2022-08-16T03:03:53;22.80;;;20.23;;
72895;SDS011;61036;53.224;6.554;2022-08-16T03:06:19;20.73;;;18.73;;
72895;SDS011;61036;53.224;6.554;2022-08-16T03:08:49;23.97;;;21.40;;
72895;SDS011;61036;53.224;6.554;2022-08-16T03:11:16;22.77;;;20.57;;
72895;SDS011;61036;53.224;6.554;2022-08-16T03:13:43;20.93;;;18.73;;
72895;SDS011;61036;53.224;6.554;2022-08-16T03:16:13;21.37;;;19.10;;
72895;SDS011;61036;53.224;6.554;2022-08-16T03:18:39;23.57;;;21.07;;
72895;SDS011;61036;53.224;6.554;2022-08-16T03:21:07;23.17;;;20.60;;
72895;SDS011;61036;53.224;6.554;2022-08-16T03:23:33;22.80;;;20.63;;
72895;SDS011;61036;53.224;6.554;2022-08-16T03:25:59;21.63;;;19.27;;
72895;SDS011;61036;53.224;6.554;2022-08-16T03:28:27;21.93;;;19.53;;
72895;SDS011;61036;53.224;6.554;2022-08-16T03:30:54;22.57;;;20.27;;
72895;SDS011;61036;53.224;6.554;2022-08-16T03:33:20;21.50;;;19.30;;
72895;SDS011;61036;53.224;6.554;2022-08-16T03:35:54;22.77;;;20.57;;
72895;SDS011;61036;53.224;6.554;2022-08-16T03:38:35;22.23;;;19.43;;
72895;SDS011;61036;53.224;6.554;2022-08-16T03:41:10;22.37;;;19.83;;
72895;SDS011;61036;53.224;6.554;2022-08-16T03:43:35;21.17;;;19.03;;
72895;SDS011;61036;53.224;6.554;2022-08-16T03:46:04;21.33;;;19.27;;
72895;SDS011;61036;53.224;6.554;2022-08-16T03:48:34;21.53;;;19.33;;
72895;SDS011;61036;53.224;6.554;2022-08-16T03:51:10;22.23;;;18.83;;
72895;SDS011;61036;53.224;6.554;2022-08-16T03:53:44;22.87;;;20.50;;
72895;SDS011;61036;53.224;6.554;2022-08-16T03:56:12;22.33;;;20.03;;
72895;SDS011;61036;53.224;6.554;2022-08-16T03:58:39;23.93;;;20.80;;
72895;SDS011;61036;53.224;6.554;2022-08-16T04:01:06;21.60;;;19.50;;
72895;SDS011;61036;53.224;6.554;2022-08-16T04:03:32;21.53;;;19.33;;
72895;SDS011;61036;53.224;6.554;2022-08-16T04:05:59;22.77;;;20.23;;
72895;SDS011;61036;53.224;6.554;2022-08-16T04:08:25;22.60;;;20.20;;
72895;SDS011;61036;53.224;6.554;2022-08-16T04:10:55;22.73;;;20.43;;
72895;SDS011;61036;53.224;6.554;2022-08-16T04:13:22;21.93;;;19.73;;
72895;SDS011;61036;53.224;6.554;2022-08-16T04:15:48;21.77;;;19.50;;
72895;SDS011;61036;53.224;6.554;2022-08-16T04:18:20;21.70;;;19.33;;
72895;SDS011;61036;53.224;6.554;2022-08-16T04:20:50;22.30;;;20.07;;
72895;SDS011;61036;53.224;6.554;2022-08-16T04:23:19;22.60;;;20.27;;
72895;SDS011;61036;53.224;6.554;2022-08-16T04:25:47;23.77;;;20.83;;
72895;SDS011;61036;53.224;6.554;2022-08-16T04:28:13;25.20;;;22.50;;
72895;SDS011;61036;53.224;6.554;2022-08-16T04:30:39;22.97;;;20.73;;
72895;SDS011;61036;53.224;6.554;2022-08-16T04:33:05;23.07;;;20.77;;
72895;SDS011;61036;53.224;6.554;2022-08-16T04:35:34;23.37;;;21.07;;
72895;SDS011;61036;53.224;6.554;2022-08-16T04:38:02;23.80;;;20.40;;
72895;SDS011;61036;53.224;6.554;2022-08-16T04:40:35;22.73;;;20.33;;
72895;SDS011;61036;53.224;6.554;2022-08-16T04:43:02;21.40;;;19.20;;
72895;SDS011;61036;53.224;6.554;2022-08-16T04:45:29;23.80;;;21.30;;
72895;SDS011;61036;53.224;6.554;2022-08-16T04:47:55;23.47;;;21.07;;
72895;SDS011;61036;53.224;6.554;2022-08-16T04:50:26;22.10;;;19.90;;
72895;SDS011;61036;53.224;6.554;2022-08-16T04:53:09;22.83;;;20.53;;
72895;SDS011;61036;53.224;6.554;2022-08-16T04:55:39;25.63;;;21.50;;
72895;SDS011;61036;53.224;6.554;2022-08-16T04:58:05;25.13;;;21.27;;
72895;SDS011;61036;53.224;6.554;2022-08-16T05:00:32;22.67;;;20.43;;
72895;SDS011;61036;53.224;6.554;2022-08-16T05:03:12;22.60;;;20.40;;
72895;SDS011;61036;53.224;6.554;2022-08-16T05:05:48;21.77;;;19.47;;
72895;SDS011;61036;53.224;6.554;2022-08-16T05:08:19;23.00;;;20.70;;
72895;SDS011;61036;53.224;6.554;2022-08-16T05:10:50;22.57;;;19.80;;
72895;SDS011;61036;53.224;6.554;2022-08-16T05:13:17;22.23;;;19.93;;
72895;SDS011;61036;53.224;6.554;2022-08-16T05:15:45;22.23;;;19.00;;
72895;SDS011;61036;53.224;6.554;2022-08-16T05:18:13;21.47;;;19.27;;
72895;SDS011;61036;53.224;6.554;2022-08-16T05:20:47;21.87;;;19.60;;
72895;SDS011;61036;53.224;6.554;2022-08-16T05:23:13;20.23;;;18.13;;
72895;SDS011;61036;53.224;6.554;2022-08-16T05:25:42;19.73;;;17.70;;
72895;SDS011;61036;53.224;6.554;2022-08-16T05:28:09;19.60;;;17.60;;
72895;SDS011;61036;53.224;6.554;2022-08-16T05:30:37;18.80;;;16.90;;
72895;SDS011;61036;53.224;6.554;2022-08-16T05:33:10;19.67;;;17.57;;
72895;SDS011;61036;53.224;6.554;2022-08-16T05:35:37;20.93;;;18.73;;
72895;SDS011;61036;53.224;6.554;2022-08-16T05:38:10;20.10;;;17.93;;
72895;SDS011;61036;53.224;6.554;2022-08-16T05:40:36;20.83;;;17.60;;
72895;SDS011;61036;53.224;6.554;2022-08-16T05:43:02;20.27;;;18.13;;
72895;SDS011;61036;53.224;6.554;2022-08-16T05:45:28;19.97;;;17.87;;
72895;SDS011;61036;53.224;6.554;2022-08-16T05:47:59;20.53;;;18.43;;
72895;SDS011;61036;53.224;6.554;2022-08-16T05:50:24;20.50;;;18.40;;
72895;SDS011;61036;53.224;6.554;2022-08-16T05:52:54;20.17;;;18.27;;
72895;SDS011;61036;53.224;6.554;2022-08-16T05:55:21;20.33;;;18.13;;
72895;SDS011;61036;53.224;6.554;2022-08-16T05:57:46;18.83;;;16.93;;
72895;SDS011;61036;53.224;6.554;2022-08-16T06:00:13;18.67;;;16.80;;
72895;SDS011;61036;53.224;6.554;2022-08-16T06:02:44;19.67;;;17.03;;
72895;SDS011;61036;53.224;6.554;2022-08-16T06:05:38;20.60;;;18.40;;
72895;SDS011;61036;53.224;6.554;2022-08-16T06:08:04;20.97;;;18.87;;
72895;SDS011;61036;53.224;6.554;2022-08-16T06:10:33;20.20;;;17.47;;
72895;SDS011;61036;53.224;6.554;2022-08-16T06:13:02;21.70;;;19.60;;
72895;SDS011;61036;53.224;6.554;2022-08-16T06:15:28;23.07;;;18.30;;
72895;SDS011;61036;53.224;6.554;2022-08-16T06:17:55;21.13;;;18.73;;
72895;SDS011;61036;53.224;6.554;2022-08-16T06:20:25;20.33;;;18.37;;
72895;SDS011;61036;53.224;6.554;2022-08-16T06:22:56;20.57;;;18.07;;
72895;SDS011;61036;53.224;6.554;2022-08-16T06:25:26;20.07;;;17.97;;
72895;SDS011;61036;53.224;6.554;2022-08-16T06:27:52;19.77;;;17.77;;
72895;SDS011;61036;53.224;6.554;2022-08-16T06:30:19;21.17;;;18.97;;
72895;SDS011;61036;53.224;6.554;2022-08-16T06:32:48;20.67;;;18.67;;
72895;SDS011;61036;53.224;6.554;2022-08-16T06:35:14;19.97;;;17.83;;
72895;SDS011;61036;53.224;6.554;2022-08-16T06:37:42;19.63;;;17.70;;
72895;SDS011;61036;53.224;6.554;2022-08-16T06:40:09;20.73;;;18.27;;
72895;SDS011;61036;53.224;6.554;2022-08-16T06:42:40;20.00;;;17.37;;
72895;SDS011;61036;53.224;6.554;2022-08-16T06:45:12;20.83;;;18.47;;
72895;SDS011;61036;53.224;6.554;2022-08-16T06:47:40;20.23;;;18.03;;
72895;SDS011;61036;53.224;6.554;2022-08-16T06:50:06;22.53;;;20.10;;
72895;SDS011;61036;53.224;6.554;2022-08-16T06:52:40;20.40;;;18.20;;
72895;SDS011;61036;53.224;6.554;2022-08-16T06:55:07;20.30;;;17.87;;
72895;SDS011;61036;53.224;6.554;2022-08-16T06:57:35;19.90;;;17.87;;
72895;SDS011;61036;53.224;6.554;2022-08-16T07:00:02;19.30;;;17.27;;
72895;SDS011;61036;53.224;6.554;2022-08-16T07:02:39;21.40;;;19.13;;
72895;SDS011;61036;53.224;6.554;2022-08-16T07:05:06;21.77;;;19.43;;
72895;SDS011;61036;53.224;6.554;2022-08-16T07:07:36;22.43;;;18.37;;
72895;SDS011;61036;53.224;6.554;2022-08-16T07:10:07;21.03;;;18.80;;
72895;SDS011;61036;53.224;6.554;2022-08-16T07:12:36;19.93;;;18.00;;
72895;SDS011;61036;53.224;6.554;2022-08-16T07:15:03;21.60;;;19.20;;
72895;SDS011;61036;53.224;6.554;2022-08-16T07:17:30;21.93;;;19.57;;
72895;SDS011;61036;53.224;6.554;2022-08-16T07:19:59;19.80;;;17.70;;
72895;SDS011;61036;53.224;6.554;2022-08-16T07:22:30;20.97;;;18.73;;
72895;SDS011;61036;53.224;6.554;2022-08-16T07:24:58;21.70;;;19.40;;
72895;SDS011;61036;53.224;6.554;2022-08-16T07:27:24;20.13;;;18.13;;
72895;SDS011;61036;53.224;6.554;2022-08-16T07:29:50;23.40;;;18.43;;
72895;SDS011;61036;53.224;6.554;2022-08-16T07:32:18;21.53;;;18.67;;
72895;SDS011;61036;53.224;6.554;2022-08-16T07:34:46;19.97;;;18.03;;
72895;SDS011;61036;53.224;6.554;2022-08-16T07:37:12;19.10;;;17.17;;
72895;SDS011;61036;53.224;6.554;2022-08-16T07:39:52;20.07;;;18.07;;
72895;SDS011;61036;53.224;6.554;2022-08-16T07:42:21;17.17;;;15.30;;
72895;SDS011;61036;53.224;6.554;2022-08-16T07:44:47;19.30;;;16.37;;
72895;SDS011;61036;53.224;6.554;2022-08-16T07:47:13;17.80;;;16.00;;
72895;SDS011;61036;53.224;6.554;2022-08-16T07:49:38;17.43;;;15.70;;
72895;SDS011;61036;53.224;6.554;2022-08-16T07:52:05;18.37;;;15.60;;
72895;SDS011;61036;53.224;6.554;2022-08-16T07:54:32;17.63;;;15.73;;
72895;SDS011;61036;53.224;6.554;2022-08-16T07:56:59;17.03;;;15.30;;
72895;SDS011;61036;53.224;6.554;2022-08-16T07:59:33;16.83;;;14.83;;
72895;SDS011;61036;53.224;6.554;2022-08-16T08:02:04;19.33;;;17.47;;
72895;SDS011;61036;53.224;6.554;2022-08-16T08:04:30;18.67;;;16.60;;
72895;SDS011;61036;53.224;6.554;2022-08-16T08:06:59;19.27;;;17.27;;
72895;SDS011;61036;53.224;6.554;2022-08-16T08:09:25;18.67;;;16.67;;
72895;SDS011;61036;53.224;6.554;2022-08-16T08:11:51;17.57;;;15.50;;
72895;SDS011;61036;53.224;6.554;2022-08-16T08:14:17;18.60;;;16.67;;
72895;SDS011;61036;53.224;6.554;2022-08-16T08:16:46;18.60;;;16.70;;
72895;SDS011;61036;53.224;6.554;2022-08-16T08:19:22;18.17;;;16.27;;
72895;SDS011;61036;53.224;6.554;2022-08-16T08:21:49;17.67;;;15.77;;
72895;SDS011;61036;53.224;6.554;2022-08-16T08:24:19;20.77;;;17.73;;
72895;SDS011;61036;53.224;6.554;2022-08-16T08:26:46;18.23;;;16.43;;
72895;SDS011;61036;53.224;6.554;2022-08-16T08:29:12;21.07;;;19.03;;
72895;SDS011;61036;53.224;6.554;2022-08-16T08:31:38;19.90;;;17.93;;
72895;SDS011;61036;53.224;6.554;2022-08-16T08:34:07;20.07;;;18.07;;
72895;SDS011;61036;53.224;6.554;2022-08-16T08:36:34;21.43;;;19.33;;
72895;SDS011;61036;53.224;6.554;2022-08-16T08:39:11;18.83;;;17.10;;
72895;SDS011;61036;53.224;6.554;2022-08-16T08:41:41;19.83;;;17.93;;
72895;SDS011;61036;53.224;6.554;2022-08-16T08:44:08;18.63;;;16.93;;
72895;SDS011;61036;53.224;6.554;2022-08-16T08:46:34;18.47;;;16.63;;
72895;SDS011;61036;53.224;6.554;2022-08-16T08:49:01;16.50;;;14.80;;
72895;SDS011;61036;53.224;6.554;2022-08-16T08:51:37;16.03;;;14.53;;
72895;SDS011;61036;53.224;6.554;2022-08-16T08:54:07;15.57;;;13.87;;
72895;SDS011;61036;53.224;6.554;2022-08-16T08:56:33;16.40;;;14.80;;
72895;SDS011;61036;53.224;6.554;2022-08-16T08:59:07;14.73;;;13.27;;
72895;SDS011;61036;53.224;6.554;2022-08-16T09:01:37;16.00;;;14.50;;
72895;SDS011;61036;53.224;6.554;2022-08-16T09:04:05;13.43;;;11.97;;
72895;SDS011;61036;53.224;6.554;2022-08-16T09:06:35;14.50;;;13.10;;
72895;SDS011;61036;53.224;6.554;2022-08-16T09:09:02;14.37;;;12.17;;
72895;SDS011;61036;53.224;6.554;2022-08-16T09:11:29;12.80;;;11.57;;
72895;SDS011;61036;53.224;6.554;2022-08-16T09:13:57;12.93;;;11.73;;
72895;SDS011;61036;53.224;6.554;2022-08-16T09:16:23;10.40;;;9.50;;
72895;SDS011;61036;53.224;6.554;2022-08-16T09:18:50;10.93;;;9.83;;
72895;SDS011;61036;53.224;6.554;2022-08-16T09:21:17;11.03;;;9.83;;
72895;SDS011;61036;53.224;6.554;2022-08-16T09:23:45;9.83;;;8.93;;
72895;SDS011;61036;53.224;6.554;2022-08-16T09:26:13;10.17;;;9.17;;
72895;SDS011;61036;53.224;6.554;2022-08-16T09:28:40;9.70;;;8.70;;
72895;SDS011;61036;53.224;6.554;2022-08-16T09:31:13;10.73;;;9.60;;
72895;SDS011;61036;53.224;6.554;2022-08-16T09:33:41;10.67;;;8.60;;
72895;SDS011;61036;53.224;6.554;2022-08-16T09:36:07;10.90;;;9.80;;
72895;SDS011;61036;53.224;6.554;2022-08-16T09:38:34;10.63;;;8.80;;
72895;SDS011;61036;53.224;6.554;2022-08-16T09:41:03;9.73;;;8.73;;
72895;SDS011;61036;53.224;6.554;2022-08-16T09:43:32;10.60;;;8.67;;
72895;SDS011;61036;53.224;6.554;2022-08-16T09:45:59;11.83;;;10.63;;
72895;SDS011;61036;53.224;6.554;2022-08-16T09:48:27;10.37;;;9.40;;
72895;SDS011;61036;53.224;6.554;2022-08-16T09:50:53;12.07;;;10.97;;
72895;SDS011;61036;53.224;6.554;2022-08-16T09:53:20;12.53;;;11.33;;
72895;SDS011;61036;53.224;6.554;2022-08-16T09:55:48;12.43;;;11.23;;
72895;SDS011;61036;53.224;6.554;2022-08-16T09:58:18;11.83;;;10.73;;
72895;SDS011;61036;53.224;6.554;2022-08-16T10:00:47;12.33;;;11.03;;
72895;SDS011;61036;53.224;6.554;2022-08-16T10:03:15;12.10;;;10.73;;
72895;SDS011;61036;53.224;6.554;2022-08-16T10:05:44;12.20;;;11.00;;
72895;SDS011;61036;53.224;6.554;2022-08-16T10:08:11;11.43;;;10.33;;
72895;SDS011;61036;53.224;6.554;2022-08-16T10:10:38;11.33;;;10.23;;
72895;SDS011;61036;53.224;6.554;2022-08-16T10:13:06;11.73;;;10.53;;
72895;SDS011;61036;53.224;6.554;2022-08-16T10:15:43;13.67;;;12.40;;
72895;SDS011;61036;53.224;6.554;2022-08-16T10:18:11;14.13;;;12.83;;
72895;SDS011;61036;53.224;6.554;2022-08-16T10:20:42;14.80;;;13.30;;
72895;SDS011;61036;53.224;6.554;2022-08-16T10:23:12;14.23;;;12.93;;
72895;SDS011;61036;53.224;6.554;2022-08-16T10:25:40;13.47;;;12.17;;
72895;SDS011;61036;53.224;6.554;2022-08-16T10:28:09;15.90;;;14.40;;
72895;SDS011;61036;53.224;6.554;2022-08-16T10:30:37;15.33;;;13.70;;
72895;SDS011;61036;53.224;6.554;2022-08-16T10:33:03;14.20;;;12.87;;
72895;SDS011;61036;53.224;6.554;2022-08-16T10:35:30;14.00;;;12.20;;
72895;SDS011;61036;53.224;6.554;2022-08-16T10:37:56;13.93;;;12.37;;
72895;SDS011;61036;53.224;6.554;2022-08-16T10:40:22;13.33;;;12.13;;
72895;SDS011;61036;53.224;6.554;2022-08-16T10:42:48;15.47;;;14.00;;
72895;SDS011;61036;53.224;6.554;2022-08-16T10:45:15;13.30;;;11.97;;
72895;SDS011;61036;53.224;6.554;2022-08-16T10:47:43;14.53;;;13.23;;
72895;SDS011;61036;53.224;6.554;2022-08-16T10:50:11;14.50;;;13.03;;
72895;SDS011;61036;53.224;6.554;2022-08-16T10:52:37;14.27;;;12.90;;
72895;SDS011;61036;53.224;6.554;2022-08-16T10:55:03;13.40;;;12.13;;
72895;SDS011;61036;53.224;6.554;2022-08-16T10:57:32;14.57;;;13.00;;
72895;SDS011;61036;53.224;6.554;2022-08-16T10:59:58;13.70;;;12.40;;
72895;SDS011;61036;53.224;6.554;2022-08-16T11:02:27;12.87;;;11.60;;
72895;SDS011;61036;53.224;6.554;2022-08-16T11:04:53;12.07;;;10.93;;
72895;SDS011;61036;53.224;6.554;2022-08-16T11:07:18;14.40;;;12.93;;
72895;SDS011;61036;53.224;6.554;2022-08-16T11:09:45;15.80;;;12.67;;
72895;SDS011;61036;53.224;6.554;2022-08-16T11:12:12;15.10;;;12.17;;
72895;SDS011;61036;53.224;6.554;2022-08-16T11:14:38;13.20;;;12.00;;
72895;SDS011;61036;53.224;6.554;2022-08-16T11:17:05;14.47;;;13.17;;
72895;SDS011;61036;53.224;6.554;2022-08-16T11:19:30;13.90;;;12.53;;
72895;SDS011;61036;53.224;6.554;2022-08-16T11:21:59;15.20;;;13.80;;
72895;SDS011;61036;53.224;6.554;2022-08-16T11:24:26;12.87;;;11.33;;
72895;SDS011;61036;53.224;6.554;2022-08-16T11:26:54;13.57;;;11.47;;
72895;SDS011;61036;53.224;6.554;2022-08-16T11:29:19;12.97;;;11.67;;
72895;SDS011;61036;53.224;6.554;2022-08-16T11:31:46;12.97;;;11.77;;
72895;SDS011;61036;53.224;6.554;2022-08-16T11:34:14;11.37;;;10.27;;
72895;SDS011;61036;53.224;6.554;2022-08-16T11:36:42;12.67;;;11.47;;
72895;SDS011;61036;53.224;6.554;2022-08-16T11:39:08;12.13;;;10.93;;
72895;SDS011;61036;53.224;6.554;2022-08-16T11:41:34;12.63;;;11.33;;
72895;SDS011;61036;53.224;6.554;2022-08-16T11:44:03;12.73;;;11.53;;
72895;SDS011;61036;53.224;6.554;2022-08-16T11:46:32;12.03;;;10.73;;
72895;SDS011;61036;53.224;6.554;2022-08-16T11:49:00;12.80;;;10.17;;
72895;SDS011;61036;53.224;6.554;2022-08-16T11:51:27;12.80;;;11.07;;
72895;SDS011;61036;53.224;6.554;2022-08-16T11:53:56;12.23;;;11.03;;
72895;SDS011;61036;53.224;6.554;2022-08-16T11:56:23;12.57;;;11.03;;
72895;SDS011;61036;53.224;6.554;2022-08-16T11:58:49;11.27;;;10.27;;
72895;SDS011;61036;53.224;6.554;2022-08-16T12:01:15;13.07;;;11.77;;
72895;SDS011;61036;53.224;6.554;2022-08-16T12:03:41;11.47;;;10.37;;
72895;SDS011;61036;53.224;6.554;2022-08-16T12:06:09;13.27;;;11.80;;
72895;SDS011;61036;53.224;6.554;2022-08-16T12:08:40;12.27;;;11.17;;
72895;SDS011;61036;53.224;6.554;2022-08-16T12:11:07;11.67;;;10.27;;
72895;SDS011;61036;53.224;6.554;2022-08-16T12:13:34;12.47;;;11.17;;
72895;SDS011;61036;53.224;6.554;2022-08-16T12:16:01;11.90;;;10.70;;
72895;SDS011;61036;53.224;6.554;2022-08-16T12:18:28;11.23;;;10.13;;
72895;SDS011;61036;53.224;6.554;2022-08-16T12:20:54;11.53;;;10.43;;
72895;SDS011;61036;53.224;6.554;2022-08-16T12:23:20;11.33;;;10.10;;
72895;SDS011;61036;53.224;6.554;2022-08-16T12:25:46;11.30;;;10.17;;
72895;SDS011;61036;53.224;6.554;2022-08-16T12:28:12;12.03;;;10.43;;
72895;SDS011;61036;53.224;6.554;2022-08-16T12:30:39;11.70;;;10.40;;
72895;SDS011;61036;53.224;6.554;2022-08-16T12:33:07;11.27;;;10.17;;
72895;SDS011;61036;53.224;6.554;2022-08-16T12:35:36;10.83;;;9.70;;
72895;SDS011;61036;53.224;6.554;2022-08-16T12:38:06;12.27;;;10.17;;
72895;SDS011;61036;53.224;6.554;2022-08-16T12:40:34;11.40;;;9.63;;
72895;SDS011;61036;53.224;6.554;2022-08-16T12:43:07;11.10;;;10.00;;
72895;SDS011;61036;53.224;6.554;2022-08-16T12:45:35;12.60;;;9.93;;
72895;SDS011;61036;53.224;6.554;2022-08-16T12:48:07;9.43;;;8.63;;
72895;SDS011;61036;53.224;6.554;2022-08-16T12:50:51;12.20;;;9.90;;
72895;SDS011;61036;53.224;6.554;2022-08-16T12:53:20;11.40;;;10.30;;
72895;SDS011;61036;53.224;6.554;2022-08-16T12:55:48;11.20;;;10.10;;
72895;SDS011;61036;53.224;6.554;2022-08-16T12:58:14;11.20;;;9.60;;
72895;SDS011;61036;53.224;6.554;2022-08-16T13:00:44;14.73;;;12.20;;
72895;SDS011;61036;53.224;6.554;2022-08-16T13:03:10;12.80;;;11.43;;
72895;SDS011;61036;53.224;6.554;2022-08-16T13:05:39;12.70;;;11.47;;
72895;SDS011;61036;53.224;6.554;2022-08-16T13:08:07;12.60;;;11.40;;
72895;SDS011;61036;53.224;6.554;2022-08-16T13:10:40;14.23;;;12.73;;
72895;SDS011;61036;53.224;6.554;2022-08-16T13:13:09;34.17;;;31.10;;
72895;SDS011;61036;53.224;6.554;2022-08-16T13:15:35;18.17;;;16.50;;
72895;SDS011;61036;53.224;6.554;2022-08-16T13:18:02;13.77;;;12.57;;
72895;SDS011;61036;53.224;6.554;2022-08-16T13:20:29;17.40;;;15.60;;
72895;SDS011;61036;53.224;6.554;2022-08-16T13:23:02;17.90;;;16.17;;
72895;SDS011;61036;53.224;6.554;2022-08-16T13:25:30;18.63;;;16.83;;
72895;SDS011;61036;53.224;6.554;2022-08-16T13:27:58;15.87;;;14.37;;
72895;SDS011;61036;53.224;6.554;2022-08-16T13:30:25;17.97;;;16.37;;
72895;SDS011;61036;53.224;6.554;2022-08-16T13:32:52;18.27;;;16.40;;
72895;SDS011;61036;53.224;6.554;2022-08-16T13:35:19;18.20;;;16.60;;
72895;SDS011;61036;53.224;6.554;2022-08-16T13:37:51;18.40;;;16.70;;
72895;SDS011;61036;53.224;6.554;2022-08-16T13:40:17;18.57;;;16.87;;
72895;SDS011;61036;53.224;6.554;2022-08-16T13:42:43;19.37;;;17.67;;
72895;SDS011;61036;53.224;6.554;2022-08-16T13:45:10;15.80;;;14.30;;
72895;SDS011;61036;53.224;6.554;2022-08-16T13:47:38;17.00;;;15.23;;
72895;SDS011;61036;53.224;6.554;2022-08-16T13:50:07;15.17;;;13.60;;
72895;SDS011;61036;53.224;6.554;2022-08-16T13:52:33;14.07;;;12.77;;
72895;SDS011;61036;53.224;6.554;2022-08-16T13:54:59;14.53;;;13.00;;
72895;SDS011;61036;53.224;6.554;2022-08-16T13:57:26;13.17;;;11.87;;
72895;SDS011;61036;53.224;6.554;2022-08-16T13:59:51;12.17;;;10.63;;
72895;SDS011;61036;53.224;6.554;2022-08-16T14:02:17;11.70;;;10.27;;
72895;SDS011;61036;53.224;6.554;2022-08-16T14:04:44;13.10;;;11.83;;
72895;SDS011;61036;53.224;6.554;2022-08-16T14:07:12;12.43;;;10.97;;
72895;SDS011;61036;53.224;6.554;2022-08-16T14:09:39;11.57;;;10.47;;
72895;SDS011;61036;53.224;6.554;2022-08-16T14:12:29;13.23;;;11.83;;
72895;SDS011;61036;53.224;6.554;2022-08-16T14:14:54;12.23;;;10.93;;
72895;SDS011;61036;53.224;6.554;2022-08-16T14:17:21;11.17;;;10.03;;
72895;SDS011;61036;53.224;6.554;2022-08-16T14:19:51;11.47;;;10.37;;
72895;SDS011;61036;53.224;6.554;2022-08-16T14:22:27;13.40;;;12.03;;
72895;SDS011;61036;53.224;6.554;2022-08-16T14:24:56;13.63;;;11.47;;
72895;SDS011;61036;53.224;6.554;2022-08-16T14:27:23;14.30;;;12.90;;
72895;SDS011;61036;53.224;6.554;2022-08-16T14:29:51;15.07;;;11.77;;